createdAt,value
2023-04-01T00:00:25.272Z,32.61
2023-04-01T00:01:25.278Z,32.60
2023-04-01T00:02:25.328Z,32.59
2023-04-01T00:03:25.488Z,32.62
2023-04-01T00:04:25.443Z,32.59
2023-04-01T00:05:25.320Z,32.62
2023-04-01T00:06:25.365Z,32.61
2023-04-01T00:07:25.372Z,32.62
2023-04-01T00:08:26.402Z,32.62
2023-04-01T00:09:25.384Z,32.62
2023-04-01T00:10:25.341Z,32.62
2023-04-01T00:11:25.358Z,32.61
2023-04-01T00:12:25.356Z,32.59
2023-04-01T00:13:25.339Z,32.61
2023-04-01T00:14:25.317Z,32.60
2023-04-01T00:15:25.306Z,32.60
2023-04-01T00:16:25.390Z,32.60
2023-04-01T00:17:25.392Z,32.61
2023-04-01T00:18:25.308Z,32.62
2023-04-01T00:19:25.284Z,32.60
2023-04-01T00:20:25.272Z,32.58
2023-04-01T00:21:25.267Z,32.62
2023-04-01T00:22:25.266Z,32.59
2023-04-01T00:23:25.275Z,32.59
2023-04-01T00:24:25.256Z,32.61
2023-04-01T00:25:25.246Z,32.62
2023-04-01T00:26:25.256Z,32.59
2023-04-01T00:27:25.259Z,32.59
2023-04-01T00:28:25.201Z,32.60
2023-04-01T00:29:25.279Z,32.61
2023-04-01T00:30:25.285Z,32.61
2023-04-01T00:31:25.223Z,32.59
2023-04-01T00:32:25.243Z,32.60
2023-04-01T00:33:25.193Z,32.61
2023-04-01T00:34:25.228Z,32.62
2023-04-01T00:35:25.237Z,32.63
2023-04-01T00:36:25.818Z,32.59
2023-04-01T00:37:25.309Z,32.60
2023-04-01T00:38:25.349Z,32.59
2023-04-01T00:39:25.380Z,32.60
2023-04-01T00:40:25.432Z,32.61
2023-04-01T00:41:25.411Z,32.59
2023-04-01T00:42:25.467Z,32.61
2023-04-01T00:43:25.517Z,32.61
2023-04-01T00:44:25.585Z,32.60
2023-04-01T00:45:25.578Z,32.61
2023-04-01T00:46:25.752Z,32.62
2023-04-01T00:47:25.711Z,32.58
2023-04-01T00:48:25.716Z,32.59
2023-04-01T00:49:25.760Z,32.61
2023-04-01T00:50:25.792Z,32.65
2023-04-01T00:51:25.866Z,32.61
2023-04-01T00:52:25.884Z,32.62
2023-04-01T00:53:25.949Z,32.62
2023-04-01T00:54:25.944Z,32.58
2023-04-01T00:55:26.004Z,32.66
2023-04-01T00:56:26.084Z,32.61
2023-04-01T00:57:26.147Z,32.60
2023-04-01T00:58:26.185Z,32.59
2023-04-01T00:59:26.207Z,32.61
2023-04-01T01:00:26.209Z,32.58
2023-04-01T01:01:26.427Z,32.60
2023-04-01T01:02:26.379Z,32.61
2023-04-01T01:03:26.367Z,32.61
2023-04-01T01:04:26.444Z,32.62
2023-04-01T01:05:26.448Z,32.62
2023-04-01T01:06:26.497Z,32.62
2023-04-01T01:07:26.536Z,32.63
2023-04-01T01:08:26.573Z,32.63
2023-04-01T01:09:26.617Z,32.62
2023-04-01T01:10:26.689Z,32.63
2023-04-01T01:11:26.752Z,32.60
2023-04-01T01:12:26.794Z,32.63
2023-04-01T01:13:26.914Z,32.62
2023-04-01T01:14:26.852Z,32.64
2023-04-01T01:15:26.903Z,32.62
2023-04-01T01:16:27.012Z,32.64
2023-04-01T01:17:27.823Z,32.66
2023-04-01T01:18:27.015Z,32.62
2023-04-01T01:19:27.092Z,32.61
2023-04-01T01:20:27.180Z,32.62
2023-04-01T01:21:27.171Z,32.63
2023-04-01T01:22:27.220Z,32.62
2023-04-01T01:23:27.290Z,32.62
2023-04-01T01:24:27.341Z,32.62
2023-04-01T01:25:27.404Z,32.61
2023-04-01T01:26:27.498Z,32.61
2023-04-01T01:27:27.463Z,32.60
2023-04-01T01:28:27.499Z,32.60
2023-04-01T01:29:27.534Z,32.62
2023-04-01T01:30:27.580Z,32.58
2023-04-01T01:31:27.671Z,32.61
2023-04-01T01:32:27.689Z,32.61
2023-04-01T01:33:27.704Z,32.62
2023-04-01T01:34:27.805Z,32.61
2023-04-01T01:35:27.744Z,32.60
2023-04-01T01:36:27.827Z,32.59
2023-04-01T01:37:27.827Z,32.61
2023-04-01T01:38:27.901Z,32.59
2023-04-01T01:39:27.916Z,32.59
2023-04-01T01:40:28.835Z,32.60
2023-04-01T01:41:28.025Z,32.59
2023-04-01T01:42:28.040Z,32.59
2023-04-01T01:43:28.139Z,32.61
2023-04-01T01:44:28.126Z,32.60
2023-04-01T01:45:28.145Z,32.61
2023-04-01T01:46:28.226Z,32.62
2023-04-01T01:47:28.249Z,32.60
2023-04-01T01:48:28.281Z,32.61
2023-04-01T01:49:28.271Z,32.61
2023-04-01T01:50:28.340Z,32.60
2023-04-01T01:51:28.303Z,32.60
2023-04-01T01:52:28.346Z,32.61
2023-04-01T01:53:28.387Z,32.61
2023-04-01T01:54:28.385Z,32.61
2023-04-01T01:55:28.460Z,32.61
2023-04-01T01:56:28.472Z,32.59
2023-04-01T01:57:28.536Z,32.60
2023-04-01T01:58:28.578Z,32.61
2023-04-01T01:59:28.624Z,32.58
2023-04-01T02:00:28.633Z,32.60
2023-04-01T02:01:28.712Z,32.61
2023-04-01T02:02:28.748Z,32.60
2023-04-01T02:03:28.717Z,32.58
2023-04-01T02:04:28.801Z,32.62
2023-04-01T02:05:28.805Z,32.62
2023-04-01T02:06:28.813Z,32.60
2023-04-01T02:07:29.292Z,32.61
2023-04-01T02:08:28.855Z,32.63
2023-04-01T02:09:28.902Z,32.60
2023-04-01T02:10:28.933Z,32.59
2023-04-01T02:11:29.017Z,32.58
2023-04-01T02:12:29.030Z,32.59
2023-04-01T02:13:29.063Z,32.59
2023-04-01T02:14:29.061Z,32.60
2023-04-01T02:15:29.142Z,32.59
2023-04-01T02:16:29.289Z,32.62
2023-04-01T02:17:29.205Z,32.60
2023-04-01T02:18:29.264Z,32.61
2023-04-01T02:19:29.279Z,32.63
2023-04-01T02:20:29.308Z,32.59
2023-04-01T02:21:29.346Z,32.58
2023-04-01T02:22:29.391Z,32.59
2023-04-01T02:23:29.417Z,32.59
2023-04-01T02:24:29.480Z,32.59
2023-04-01T02:25:29.534Z,32.58
2023-04-01T02:26:29.568Z,32.59
2023-04-01T02:27:29.653Z,32.59
2023-04-01T02:28:29.648Z,32.58
2023-04-01T02:29:29.696Z,32.59
2023-04-01T02:30:29.699Z,32.58
2023-04-01T02:31:29.756Z,32.59
2023-04-01T02:32:29.826Z,32.60
2023-04-01T02:33:29.842Z,32.57
2023-04-01T02:34:29.819Z,32.59
2023-04-01T02:35:29.902Z,32.57
2023-04-01T02:36:30.049Z,32.59
2023-04-01T02:37:29.911Z,32.60
2023-04-01T02:38:29.946Z,32.57
2023-04-01T02:39:30.029Z,32.59
2023-04-01T02:40:30.059Z,32.62
2023-04-01T02:41:30.086Z,32.59
2023-04-01T02:42:30.083Z,32.57
2023-04-01T02:43:30.151Z,32.61
2023-04-01T02:44:30.158Z,32.58
2023-04-01T02:45:30.291Z,32.60
2023-04-01T02:46:30.283Z,32.57
2023-04-01T02:47:30.267Z,32.57
2023-04-01T02:48:30.268Z,32.58
2023-04-01T02:49:30.307Z,32.59
2023-04-01T02:50:30.342Z,32.60
2023-04-01T02:51:31.089Z,32.58
2023-04-01T02:52:30.444Z,32.59
2023-04-01T02:53:30.437Z,32.60
2023-04-01T02:54:30.434Z,32.58
2023-04-01T02:55:30.713Z,32.62
2023-04-01T02:56:30.513Z,32.61
2023-04-01T02:57:30.729Z,32.58
2023-04-01T02:58:30.561Z,32.59
2023-04-01T02:59:30.597Z,32.58
2023-04-01T03:00:30.640Z,32.60
2023-04-01T03:01:30.741Z,32.61
2023-04-01T03:02:30.845Z,32.59
2023-04-01T03:03:30.760Z,32.61
2023-04-01T03:04:30.783Z,32.59
2023-04-01T03:05:31.066Z,32.58
2023-04-01T03:06:30.814Z,32.59
2023-04-01T03:07:30.862Z,32.58
2023-04-01T03:08:30.972Z,32.60
2023-04-01T03:09:30.939Z,32.59
2023-04-01T03:10:30.949Z,32.58
2023-04-01T03:11:31.002Z,32.60
2023-04-01T03:12:31.039Z,32.60
2023-04-01T03:13:31.085Z,32.60
2023-04-01T03:14:31.117Z,32.60
2023-04-01T03:15:31.319Z,32.59
2023-04-01T03:16:31.229Z,32.59
2023-04-01T03:17:31.220Z,32.59
2023-04-01T03:18:31.260Z,32.59
2023-04-01T03:19:31.333Z,32.62
2023-04-01T03:20:31.321Z,32.61
2023-04-01T03:21:31.402Z,32.59
2023-04-01T03:22:31.402Z,32.60
2023-04-01T03:23:31.455Z,32.60
2023-04-01T03:24:31.486Z,32.60
2023-04-01T03:25:31.723Z,32.60
2023-04-01T03:26:31.571Z,32.58
2023-04-01T03:27:31.616Z,32.62
2023-04-01T03:28:31.680Z,32.60
2023-04-01T03:29:31.738Z,32.61
2023-04-01T03:30:31.758Z,32.59
2023-04-01T03:31:31.865Z,32.62
2023-04-01T03:32:31.863Z,32.62
2023-04-01T03:33:31.939Z,32.61
2023-04-01T03:34:31.935Z,32.60
2023-04-01T03:35:32.186Z,32.59
2023-04-01T03:36:32.064Z,32.62
2023-04-01T03:37:32.063Z,32.62
2023-04-01T03:38:32.117Z,32.60
2023-04-01T03:39:32.173Z,32.63
2023-04-01T03:40:32.235Z,32.63
2023-04-01T03:41:32.293Z,32.63
2023-04-01T03:42:32.280Z,32.63
2023-04-01T03:43:32.372Z,32.61
2023-04-01T03:44:32.338Z,32.62
2023-04-01T03:45:32.537Z,32.62
2023-04-01T03:46:32.516Z,32.60
2023-04-01T03:47:32.542Z,32.63
2023-04-01T03:48:32.535Z,32.63
2023-04-01T03:49:32.572Z,32.64
2023-04-01T03:50:32.593Z,32.63
2023-04-01T03:51:32.650Z,32.61
2023-04-01T03:52:32.728Z,32.64
2023-04-01T03:53:32.744Z,32.62
2023-04-01T03:54:32.776Z,32.64
2023-04-01T03:55:32.962Z,32.64
2023-04-01T03:56:32.899Z,32.60
2023-04-01T03:57:33.067Z,32.61
2023-04-01T03:58:32.972Z,32.62
2023-04-01T03:59:33.022Z,32.62
2023-04-01T04:00:33.091Z,32.58
2023-04-01T04:01:33.080Z,32.62
2023-04-01T04:02:33.216Z,32.65
2023-04-01T04:03:33.373Z,32.68
2023-04-01T04:04:33.315Z,32.66
2023-04-01T04:05:33.386Z,32.64
2023-04-01T04:06:33.325Z,32.64
2023-04-01T04:07:33.387Z,32.63
2023-04-01T04:08:33.391Z,32.65
2023-04-01T04:09:33.446Z,32.62
2023-04-01T04:10:33.496Z,32.61
2023-04-01T04:11:33.511Z,32.65
2023-04-01T04:12:33.574Z,32.63
2023-04-01T04:13:33.632Z,32.64
2023-04-01T04:14:33.690Z,32.62
2023-04-01T04:15:33.946Z,32.67
2023-04-01T04:16:33.775Z,32.63
2023-04-01T04:17:33.915Z,32.65
2023-04-01T04:18:33.877Z,32.64
2023-04-01T04:19:33.883Z,32.63
2023-04-01T04:20:33.932Z,32.65
2023-04-01T04:21:34.002Z,32.65
2023-04-01T04:22:34.020Z,32.61
2023-04-01T04:23:34.058Z,32.64
2023-04-01T04:24:34.114Z,32.62
2023-04-01T04:25:34.358Z,32.63
2023-04-01T04:26:34.184Z,32.62
2023-04-01T04:27:34.254Z,32.63
2023-04-01T04:28:34.303Z,32.61
2023-04-01T04:29:34.316Z,32.66
2023-04-01T04:30:34.365Z,32.64
2023-04-01T04:31:34.481Z,32.63
2023-04-01T04:32:34.473Z,32.63
2023-04-01T04:33:34.480Z,32.63
2023-04-01T04:34:34.543Z,32.62
2023-04-01T04:35:34.810Z,32.63
2023-04-01T04:36:34.661Z,32.67
2023-04-01T04:37:34.672Z,32.64
2023-04-01T04:38:34.726Z,32.64
2023-04-01T04:39:34.787Z,32.62
2023-04-01T04:40:34.792Z,32.64
2023-04-01T04:41:37.156Z,32.67
2023-04-01T04:42:34.848Z,32.64
2023-04-01T04:43:34.864Z,32.63
2023-04-01T04:44:34.809Z,32.65
2023-04-01T04:45:35.079Z,32.67
2023-04-01T04:46:34.856Z,32.64
2023-04-01T04:47:34.808Z,32.62
2023-04-01T04:48:34.800Z,32.61
2023-04-01T04:49:34.792Z,32.64
2023-04-01T04:50:34.804Z,32.65
2023-04-01T04:51:34.754Z,32.62
2023-04-01T04:52:34.771Z,32.62
2023-04-01T04:53:34.778Z,32.60
2023-04-01T04:54:34.794Z,32.61
2023-04-01T04:55:34.952Z,32.58
2023-04-01T04:56:34.725Z,32.66
2023-04-01T04:57:34.806Z,32.64
2023-04-01T04:58:34.705Z,32.61
2023-04-01T04:59:34.707Z,32.64
2023-04-01T05:00:34.724Z,32.61
2023-04-01T05:01:34.753Z,32.64
2023-04-01T05:02:34.719Z,32.61
2023-04-01T05:03:34.764Z,32.62
2023-04-01T05:04:34.684Z,32.64
2023-04-01T05:05:34.892Z,32.62
2023-04-01T05:06:34.653Z,32.60
2023-04-01T05:07:34.672Z,32.60
2023-04-01T05:08:34.672Z,32.60
2023-04-01T05:09:34.637Z,32.59
2023-04-01T05:10:34.621Z,32.60
2023-04-01T05:11:34.628Z,32.59
2023-04-01T05:12:34.638Z,32.59
2023-04-01T05:13:34.597Z,32.59
2023-04-01T05:14:34.598Z,32.58
2023-04-01T05:15:34.899Z,32.59
2023-04-01T05:16:34.566Z,32.54
2023-04-01T05:17:34.627Z,32.56
2023-04-01T05:18:34.583Z,32.59
2023-04-01T05:19:34.580Z,32.61
2023-04-01T05:20:34.586Z,32.58
2023-04-01T05:21:34.509Z,32.58
2023-04-01T05:22:34.605Z,32.59
2023-04-01T05:23:34.672Z,32.59
2023-04-01T05:24:34.681Z,32.58
2023-04-01T05:25:35.050Z,32.56
2023-04-01T05:26:34.779Z,32.57
2023-04-01T05:27:34.837Z,32.59
2023-04-01T05:28:34.897Z,32.60
2023-04-01T05:29:34.902Z,32.56
2023-04-01T05:30:34.992Z,32.60
2023-04-01T05:31:35.029Z,32.60
2023-04-01T05:32:35.122Z,32.55
2023-04-01T05:33:35.087Z,32.53
2023-04-01T05:34:35.151Z,32.55
2023-04-01T05:35:35.404Z,32.57
2023-04-01T05:36:35.215Z,32.57
2023-04-01T05:37:35.277Z,32.54
2023-04-01T05:38:35.332Z,32.53
2023-04-01T05:39:35.333Z,32.52
2023-04-01T05:40:35.434Z,32.52
2023-04-01T05:41:35.554Z,32.48
2023-04-01T05:42:36.971Z,32.49
2023-04-01T05:43:35.458Z,32.47
2023-04-01T05:44:35.419Z,32.44
2023-04-01T05:45:35.567Z,32.42
2023-04-01T05:46:35.519Z,32.40
2023-04-01T05:47:35.439Z,32.35
2023-04-01T05:48:35.458Z,32.34
2023-04-01T05:49:35.409Z,32.32
2023-04-01T05:50:35.415Z,32.27
2023-04-01T05:51:35.419Z,32.25
2023-04-01T05:52:35.392Z,32.21
2023-04-01T05:53:35.389Z,32.21
2023-04-01T05:54:35.400Z,32.20
2023-04-01T05:55:35.576Z,32.14
2023-04-01T05:56:35.340Z,32.16
2023-04-01T05:57:35.478Z,32.11
2023-04-01T05:58:35.361Z,32.10
2023-04-01T05:59:35.331Z,32.06
2023-04-01T06:00:35.322Z,32.03
2023-04-01T06:01:35.343Z,31.97
2023-04-01T06:02:35.384Z,31.94
2023-04-01T06:03:35.424Z,31.85
2023-04-01T06:04:35.306Z,31.83
2023-04-01T06:05:35.550Z,31.78
2023-04-01T06:06:35.324Z,31.73
2023-04-01T06:07:35.314Z,31.70
2023-04-01T06:08:35.281Z,31.72
2023-04-01T06:09:35.282Z,31.71
2023-04-01T06:10:35.226Z,31.70
2023-04-01T06:11:35.239Z,31.72
2023-04-01T06:12:35.244Z,31.74
2023-04-01T06:13:35.253Z,31.72
2023-04-01T06:14:35.213Z,31.69
2023-04-01T06:15:35.461Z,31.67
2023-04-01T06:16:35.261Z,31.60
2023-04-01T06:17:35.250Z,31.52
2023-04-01T06:18:35.207Z,31.42
2023-04-01T06:19:35.200Z,31.33
2023-04-01T06:20:35.183Z,31.19
2023-04-01T06:21:35.214Z,31.16
2023-04-01T06:22:35.185Z,31.09
2023-04-01T06:23:35.139Z,31.09
2023-04-01T06:24:35.192Z,31.05
2023-04-01T06:25:35.395Z,31.06
2023-04-01T06:26:35.127Z,31.07
2023-04-01T06:27:35.144Z,31.08
2023-04-01T06:28:35.187Z,31.09
2023-04-01T06:29:35.176Z,31.13
2023-04-01T06:30:35.130Z,31.14
2023-04-01T06:31:35.180Z,31.17
2023-04-01T06:32:35.121Z,31.21
2023-04-01T06:33:35.104Z,31.22
2023-04-01T06:34:35.084Z,31.24
2023-04-01T06:35:35.453Z,31.24
2023-04-01T06:36:35.149Z,31.24
2023-04-01T06:37:35.143Z,31.26
2023-04-01T06:38:35.074Z,31.31
2023-04-01T06:39:35.092Z,31.30
2023-04-01T06:40:35.091Z,31.31
2023-04-01T06:41:35.032Z,31.30
2023-04-01T06:42:35.043Z,31.35
2023-04-01T06:43:35.046Z,31.35
2023-04-01T06:44:35.057Z,31.33
2023-04-01T06:45:35.469Z,31.35
2023-04-01T06:46:35.171Z,31.30
2023-04-01T06:47:35.250Z,31.30
2023-04-01T06:48:35.254Z,31.27
2023-04-01T06:49:35.301Z,31.19
2023-04-01T06:50:35.372Z,31.19
2023-04-01T06:51:35.369Z,31.16
2023-04-01T06:52:35.746Z,31.12
2023-04-01T06:53:35.498Z,31.09
2023-04-01T06:54:35.554Z,31.04
2023-04-01T06:55:35.606Z,31.01
2023-04-01T06:56:35.688Z,30.95
2023-04-01T06:57:35.726Z,30.92
2023-04-01T06:58:35.731Z,30.85
2023-04-01T06:59:35.836Z,30.80
2023-04-01T07:00:35.895Z,30.77
2023-04-01T07:01:35.963Z,30.73
2023-04-01T07:02:36.044Z,30.69
2023-04-01T07:03:36.086Z,30.65
2023-04-01T07:04:36.095Z,30.63
2023-04-01T07:05:36.190Z,30.60
2023-04-01T07:06:36.194Z,30.59
2023-04-01T07:07:36.237Z,30.60
2023-04-01T07:08:36.327Z,30.60
2023-04-01T07:09:36.343Z,30.58
2023-04-01T07:10:36.423Z,30.55
2023-04-01T07:11:36.420Z,30.53
2023-04-01T07:12:36.541Z,30.50
2023-04-01T07:13:36.538Z,30.49
2023-04-01T07:14:36.567Z,30.49
2023-04-01T07:15:36.683Z,30.53
2023-04-01T07:16:36.661Z,30.47
2023-04-01T07:17:36.702Z,30.47
2023-04-01T07:18:38.052Z,30.43
2023-04-01T07:19:36.729Z,30.42
2023-04-01T07:20:36.732Z,30.40
2023-04-01T07:21:36.799Z,30.36
2023-04-01T07:22:36.877Z,30.37
2023-04-01T07:23:36.855Z,30.31
2023-04-01T07:24:36.938Z,30.34
2023-04-01T07:25:36.924Z,30.32
2023-04-01T07:26:36.982Z,30.30
2023-04-01T07:27:36.987Z,30.29
2023-04-01T07:28:37.053Z,30.25
2023-04-01T07:29:37.074Z,30.25
2023-04-01T07:30:37.071Z,30.22
2023-04-01T07:31:37.204Z,30.18
2023-04-01T07:32:37.150Z,30.17
2023-04-01T07:33:37.140Z,30.19
2023-04-01T07:34:37.129Z,30.16
2023-04-01T07:35:37.153Z,30.18
2023-04-01T07:36:37.146Z,30.20
2023-04-01T07:37:37.237Z,30.20
2023-04-01T07:38:37.345Z,30.19
2023-04-01T07:39:37.225Z,30.19
2023-04-01T07:40:37.246Z,30.13
2023-04-01T07:41:37.230Z,30.14
2023-04-01T07:42:37.221Z,30.06
2023-04-01T07:43:37.216Z,30.10
2023-04-01T07:44:37.295Z,30.08
2023-04-01T07:45:37.293Z,30.11
2023-04-01T07:46:37.310Z,30.08
2023-04-01T07:47:37.269Z,30.11
2023-04-01T07:48:37.254Z,30.07
2023-04-01T07:49:37.237Z,30.05
2023-04-01T07:50:41.052Z,30.06
2023-04-01T07:51:37.314Z,30.05
2023-04-01T07:52:37.282Z,30.05
2023-04-01T07:53:37.528Z,30.05
2023-04-01T07:54:37.218Z,30.09
2023-04-01T07:55:37.230Z,30.09
2023-04-01T07:56:37.282Z,30.11
2023-04-01T07:57:37.248Z,30.12
2023-04-01T07:58:37.264Z,30.11
2023-04-01T07:59:37.220Z,30.12
2023-04-01T08:00:37.223Z,30.10
2023-04-01T08:01:37.307Z,30.10
2023-04-01T08:02:37.301Z,30.10
2023-04-01T08:03:37.365Z,30.09
2023-04-01T08:04:37.287Z,30.07
2023-04-01T08:05:37.151Z,30.09
2023-04-01T08:06:37.171Z,30.06
2023-04-01T08:07:37.231Z,30.05
2023-04-01T08:08:37.162Z,30.01
2023-04-01T08:09:37.139Z,30.02
2023-04-01T08:10:37.146Z,30.02
2023-04-01T08:11:37.155Z,29.99
2023-04-01T08:12:37.182Z,29.93
2023-04-01T08:13:37.111Z,29.93
2023-04-01T08:14:37.165Z,29.93
2023-04-01T08:15:37.102Z,29.89
2023-04-01T08:16:37.111Z,29.80
2023-04-01T08:17:37.203Z,29.76
2023-04-01T08:18:37.053Z,29.75
2023-04-01T08:19:37.086Z,29.73
2023-04-01T08:20:37.114Z,29.72
2023-04-01T08:21:37.054Z,29.68
2023-04-01T08:22:37.054Z,29.64
2023-04-01T08:23:37.047Z,29.61
2023-04-01T08:24:46.607Z,29.58
2023-04-01T08:25:38.059Z,29.61
2023-04-01T08:26:37.015Z,29.52
2023-04-01T08:27:37.047Z,29.50
2023-04-01T08:28:37.024Z,29.48
2023-04-01T08:29:37.000Z,29.45
2023-04-01T08:30:37.011Z,29.41
2023-04-01T08:31:37.153Z,29.42
2023-04-01T08:32:37.054Z,29.38
2023-04-01T08:33:36.962Z,29.37
2023-04-01T08:34:36.933Z,29.33
2023-04-01T08:35:38.474Z,29.34
2023-04-01T08:36:37.026Z,29.30
2023-04-01T08:37:36.955Z,29.30
2023-04-01T08:38:36.951Z,29.26
2023-04-01T08:39:36.963Z,29.25
2023-04-01T08:40:36.927Z,29.21
2023-04-01T08:41:36.962Z,29.21
2023-04-01T08:42:36.943Z,29.17
2023-04-01T08:43:37.000Z,29.18
2023-04-01T08:44:36.930Z,29.12
2023-04-01T08:45:37.025Z,29.12
2023-04-01T08:46:36.988Z,29.09
2023-04-01T08:47:37.002Z,29.08
2023-04-01T08:48:37.009Z,29.05
2023-04-01T08:49:37.021Z,29.04
2023-04-01T08:50:36.965Z,28.99
2023-04-01T08:51:37.048Z,28.98
2023-04-01T08:52:37.158Z,28.94
2023-04-01T08:53:37.101Z,28.92
2023-04-01T08:54:37.157Z,28.89
2023-04-01T08:55:37.204Z,28.84
2023-04-01T08:56:37.314Z,28.81
2023-04-01T08:57:39.024Z,28.82
2023-04-01T08:58:37.404Z,28.76
2023-04-01T08:59:37.451Z,28.71
2023-04-01T09:00:37.552Z,28.70
2023-04-01T09:01:37.618Z,28.68
2023-04-01T09:02:37.703Z,28.60
2023-04-01T09:03:37.779Z,28.61
2023-04-01T09:04:37.846Z,28.54
2023-04-01T09:05:37.800Z,28.50
2023-04-01T09:06:37.835Z,28.48
2023-04-01T09:07:37.888Z,28.46
2023-04-01T09:08:37.983Z,28.43
2023-04-01T09:09:37.927Z,28.41
2023-04-01T09:10:37.993Z,28.40
2023-04-01T09:11:38.077Z,28.34
2023-04-01T09:12:38.187Z,28.34
2023-04-01T09:13:38.102Z,28.29
2023-04-01T09:14:38.120Z,28.30
2023-04-01T09:15:38.219Z,28.30
2023-04-01T09:16:38.194Z,28.26
2023-04-01T09:17:38.186Z,28.22
2023-04-01T09:18:38.219Z,28.22
2023-04-01T09:19:38.247Z,28.19
2023-04-01T09:20:38.260Z,28.19
2023-04-01T09:21:38.352Z,28.20
2023-04-01T09:22:38.361Z,28.20
2023-04-01T09:23:38.308Z,28.13
2023-04-01T09:24:38.390Z,28.14
2023-04-01T09:25:38.362Z,28.15
2023-04-01T09:26:38.426Z,28.12
2023-04-01T09:27:38.334Z,28.10
2023-04-01T09:28:38.324Z,28.08
2023-04-01T09:29:38.316Z,28.07
2023-04-01T09:30:38.332Z,28.09
2023-04-01T09:31:38.426Z,28.07
2023-04-01T09:32:38.374Z,28.04
2023-04-01T09:33:38.287Z,28.03
2023-04-01T09:34:38.301Z,28.03
2023-04-01T09:35:38.315Z,28.02
2023-04-01T09:36:38.315Z,28.07
2023-04-01T09:37:38.354Z,28.01
2023-04-01T09:38:38.400Z,27.96
2023-04-01T09:39:38.495Z,27.96
2023-04-01T09:40:38.532Z,27.96
2023-04-01T09:41:38.471Z,27.95
2023-04-01T09:42:38.465Z,27.94
2023-04-01T09:43:38.533Z,27.96
2023-04-01T09:44:38.535Z,27.93
2023-04-01T09:45:38.540Z,27.90
2023-04-01T09:46:38.583Z,27.89
2023-04-01T09:47:38.672Z,27.90
2023-04-01T09:48:38.671Z,27.89
2023-04-01T09:49:38.717Z,27.84
2023-04-01T09:50:38.791Z,27.81
2023-04-01T09:51:38.831Z,27.84
2023-04-01T09:52:38.904Z,27.86
2023-04-01T09:53:38.950Z,27.85
2023-04-01T09:54:39.022Z,27.79
2023-04-01T09:55:39.058Z,27.86
2023-04-01T09:56:39.139Z,27.82
2023-04-01T09:57:39.234Z,27.86
2023-04-01T09:58:43.877Z,27.85
2023-04-01T09:59:40.231Z,27.86
2023-04-01T10:00:39.270Z,27.82
2023-04-01T10:01:39.314Z,27.84
2023-04-01T10:02:39.288Z,27.80
2023-04-01T10:03:39.251Z,27.75
2023-04-01T10:04:39.282Z,27.80
2023-04-01T10:05:39.276Z,27.82
2023-04-01T10:06:39.215Z,27.82
2023-04-01T10:07:39.202Z,27.83
2023-04-01T10:08:39.136Z,27.88
2023-04-01T10:09:39.220Z,27.82
2023-04-01T10:10:39.236Z,27.80
2023-04-01T10:11:39.271Z,27.70
2023-04-01T10:12:39.286Z,27.73
2023-04-01T10:13:39.331Z,27.80
2023-04-01T10:14:39.340Z,27.77
2023-04-01T10:15:39.359Z,27.75
2023-04-01T10:16:39.487Z,27.66
2023-04-01T10:18:58.272Z,27.70
2023-04-01T10:19:58.261Z,27.69
2023-04-01T10:20:58.326Z,27.69
2023-04-01T10:21:58.385Z,27.68
2023-04-01T10:22:58.389Z,27.68
2023-04-01T10:23:58.443Z,27.66
2023-04-01T10:24:58.450Z,27.71
2023-04-01T10:25:58.488Z,27.66
2023-04-01T10:26:58.566Z,27.70
2023-04-01T10:27:58.571Z,27.66
2023-04-01T10:28:58.638Z,27.66
2023-04-01T10:29:58.625Z,27.63
2023-04-01T10:30:58.699Z,27.63
2023-04-01T10:31:58.771Z,27.64
2023-04-01T10:32:58.786Z,27.66
2023-04-01T10:33:58.757Z,27.68
2023-04-01T10:34:58.756Z,27.68
2023-04-01T10:35:58.861Z,27.68
2023-04-01T10:36:58.791Z,27.65
2023-04-01T10:37:58.892Z,27.64
2023-04-01T10:38:58.894Z,27.57
2023-04-01T10:39:58.887Z,27.59
2023-04-01T10:40:58.966Z,27.55
2023-04-01T10:41:58.980Z,27.53
2023-04-01T10:42:58.991Z,27.56
2023-04-01T10:43:58.988Z,27.55
2023-04-01T10:44:58.989Z,27.60
2023-04-01T10:45:59.073Z,27.58
2023-04-01T10:46:59.024Z,27.58
2023-04-01T10:47:59.091Z,27.56
2023-04-01T10:48:59.065Z,27.60
2023-04-01T10:49:59.031Z,27.59
2023-04-01T10:50:59.077Z,27.61
2023-04-01T10:51:59.080Z,27.59
2023-04-01T10:52:59.069Z,27.57
2023-04-01T10:53:59.151Z,27.57
2023-04-01T10:54:59.107Z,27.55
2023-04-01T10:55:59.176Z,27.55
2023-04-01T10:56:59.153Z,27.56
2023-04-01T10:57:59.188Z,27.56
2023-04-01T10:58:59.190Z,27.56
2023-04-01T10:59:59.210Z,27.57
2023-04-01T11:00:59.221Z,27.55
2023-04-01T11:02:10.197Z,27.56
2023-04-01T11:03:00.346Z,27.57
2023-04-01T11:03:59.323Z,27.57
2023-04-01T11:04:59.209Z,27.58
2023-04-01T11:05:59.163Z,27.56
2023-04-01T11:06:59.196Z,27.57
2023-04-01T11:08:05.864Z,27.56
2023-04-01T11:09:00.197Z,27.56
2023-04-01T11:09:59.159Z,27.58
2023-04-01T11:10:59.177Z,27.56
2023-04-01T11:11:59.181Z,27.57
2023-04-01T11:12:59.111Z,27.51
2023-04-01T11:13:59.142Z,27.52
2023-04-01T11:14:59.133Z,27.52
2023-04-01T11:15:59.253Z,27.51
2023-04-01T11:16:59.147Z,27.49
2023-04-01T11:17:59.126Z,27.53
2023-04-01T11:18:59.255Z,27.52
2023-04-01T11:19:59.059Z,27.51
2023-04-01T11:20:59.051Z,27.47
2023-04-01T11:21:59.096Z,27.45
2023-04-01T11:22:59.091Z,27.45
2023-04-01T11:24:04.993Z,27.45
2023-04-01T11:25:00.125Z,27.47
2023-04-01T11:25:59.029Z,27.48
2023-04-01T11:26:59.165Z,27.43
2023-04-01T11:27:59.012Z,27.41
2023-04-01T11:28:59.022Z,27.43
2023-04-01T11:30:00.607Z,27.42
2023-04-01T11:30:59.064Z,27.43
2023-04-01T11:31:59.008Z,27.41
2023-04-01T11:32:58.994Z,27.40
2023-04-01T11:33:58.990Z,27.38
2023-04-01T11:34:58.979Z,27.39
2023-04-01T11:35:58.972Z,27.33
2023-04-01T11:36:58.998Z,27.34
2023-04-01T11:37:58.941Z,27.31
2023-04-01T11:38:58.949Z,27.27
2023-04-01T11:39:59.004Z,27.27
2023-04-01T11:40:58.971Z,27.26
2023-04-01T11:41:58.972Z,27.23
2023-04-01T11:42:58.912Z,27.24
2023-04-01T11:43:58.932Z,27.21
2023-04-01T11:44:58.940Z,27.26
2023-04-01T11:45:58.953Z,27.25
2023-04-01T11:46:58.906Z,27.24
2023-04-01T11:47:58.949Z,27.23
2023-04-01T11:48:58.914Z,27.20
2023-04-01T11:49:58.882Z,27.20
2023-04-01T11:50:58.860Z,27.15
2023-04-01T11:51:58.868Z,27.17
2023-04-01T11:52:58.831Z,27.13
2023-04-01T11:53:58.881Z,27.13
2023-04-01T11:54:58.821Z,27.15
2023-04-01T11:55:58.896Z,27.15
2023-04-01T11:56:58.856Z,27.13
2023-04-01T11:57:58.921Z,27.14
2023-04-01T11:58:58.880Z,27.12
2023-04-01T11:59:58.896Z,27.13
2023-04-01T12:00:59.102Z,27.15
2023-04-01T12:01:58.955Z,27.17
2023-04-01T12:02:59.122Z,27.17
2023-04-01T12:03:59.187Z,27.15
2023-04-01T12:04:59.067Z,27.17
2023-04-01T12:05:59.103Z,27.17
2023-04-01T12:06:59.112Z,27.19
2023-04-01T12:07:59.174Z,27.21
2023-04-01T12:08:59.162Z,27.20
2023-04-01T12:09:59.229Z,27.22
2023-04-01T12:10:59.226Z,27.21
2023-04-01T12:11:59.242Z,27.21
2023-04-01T12:13:59.222Z,27.24
2023-04-01T12:14:59.295Z,27.25
2023-04-01T12:15:59.352Z,27.25
2023-04-01T12:16:59.314Z,27.24
2023-04-01T12:17:59.357Z,27.25
2023-04-01T12:18:59.297Z,27.25
2023-04-01T12:19:59.369Z,27.24
2023-04-01T12:20:59.385Z,27.22
2023-04-01T12:21:59.377Z,27.21
2023-04-01T12:22:59.431Z,27.19
2023-04-01T12:23:59.410Z,27.21
2023-04-01T12:24:59.509Z,27.26
2023-04-01T12:25:59.471Z,27.23
2023-04-01T12:26:59.566Z,27.23
2023-04-01T12:27:59.592Z,27.24
2023-04-01T12:28:59.600Z,27.26
2023-04-01T12:29:59.557Z,27.30
2023-04-01T12:30:59.588Z,27.30
2023-04-01T12:31:59.586Z,27.29
2023-04-01T12:32:59.588Z,27.29
2023-04-01T12:33:59.664Z,27.34
2023-04-01T12:34:59.642Z,27.30
2023-04-01T12:35:59.617Z,27.31
2023-04-01T12:36:59.591Z,27.32
2023-04-01T12:37:59.581Z,27.32
2023-04-01T12:38:59.624Z,27.32
2023-04-01T12:39:59.560Z,27.35
2023-04-01T12:40:59.584Z,27.34
2023-04-01T12:41:59.622Z,27.36
2023-04-01T12:42:59.594Z,27.37
2023-04-01T12:43:59.649Z,27.38
2023-04-01T12:44:59.625Z,27.39
2023-04-01T12:45:59.667Z,27.41
2023-04-01T12:46:59.617Z,27.43
2023-04-01T12:47:59.657Z,27.47
2023-04-01T12:48:59.633Z,27.45
2023-04-01T12:49:59.669Z,27.47
2023-04-01T12:50:59.645Z,27.49
2023-04-01T12:51:59.607Z,27.50
2023-04-01T12:52:59.681Z,27.52
2023-04-01T12:53:59.685Z,27.54
2023-04-01T12:55:00.893Z,27.52